Puropanmaru No.3 — JD3322 — position and weather

sailwx.info

Track history (hours):
 
Tides and Currents Weather Stations Pressure Air Temp Water Temp Dewpoint Dewpoint Depression Visibility Wind Speed Wind Dir Waves Ship Positions

Puropanmaru No.3

Last reported at 2016-Sep-25 04:20 UTC. Time now 2016-Sep-25 10:35 UTC.
Position N 35°57' E 140°43'.

Length 68 m; draft 4.1 m.

Type: Tanker. MMSI: 431003365.

Date/timePositionNaut miles runAvg speedWind from/ knotsBaromVisibWave heightAir tempDewpointWater temp
2016-Sep-25 04:20N 35°57' E 140°43'4 1.2
2016-Sep-25 00:33N 35°53' E 140°41'0 0.0
2016-Sep-24 22:31N 35°53' E 140°41'5 3.9
2016-Sep-24 21:07N 35°58' E 140°44'0 0.0
2016-Sep-24 19:28N 35°58' E 140°44'0 0.0
2016-Sep-24 18:13N 35°58' E 140°44'0 0.0
2016-Sep-24 17:16N 35°58' E 140°44'0 0.0
2016-Sep-24 12:25N 35°58' E 140°44'0 0.0
2016-Sep-24 10:22N 35°58' E 140°44'12 9.5
2016-Sep-24 09:08N 35°48' E 140°52'7111.9
2016-Sep-24 03:11N 34°53' E 139°58'812.6
2016-Sep-24 02:31N 34°53' E 139°47'1212.1
2016-Sep-24 01:33N 35°04' E 139°45'1312.7
2016-Sep-24 00:34N 35°17' E 139°45'21 4.2
2016-Sep-23 19:27N 35°37' E 139°55'0 0.0
2016-Sep-23 17:33N 35°36' E 139°55'0 0.0
2016-Sep-23 16:18N 35°36' E 139°55'0 0.0
2016-Sep-23 15:30N 35°36' E 139°55'0 0.0
2016-Sep-23 13:30N 35°37' E 139°55'0 0.0
2016-Sep-23 09:33N 35°37' E 139°55'0 0.0
2016-Sep-23 06:33N 35°37' E 139°55'0 0.0
2016-Sep-23 04:30N 35°37' E 139°55'0 0.0
2016-Sep-23 03:33N 35°37' E 139°55'0 0.0
2016-Sep-23 02:33N 35°37' E 139°55'0 0.0
2016-Sep-23 01:30N 35°37' E 139°55'0 0.0
2016-Sep-23 00:33N 35°37' E 139°55'0 0.0
2016-Sep-22 23:33N 35°37' E 139°55'0 0.0
2016-Sep-22 20:33N 35°37' E 139°55'0 0.0
2016-Sep-22 12:30N 35°37' E 139°55'0 0.0
2016-Sep-22 04:33N 35°36' E 139°55'0 0.0
2016-Sep-22 03:33N 35°36' E 139°55'0 0.0
2016-Sep-22 00:30N 35°36' E 139°55'2 2.0
2016-Sep-21 23:33N 35°35' E 139°57'7 6.1
2016-Sep-21 22:23N 35°33' E 140°05'0 0.0
2016-Sep-21 19:29N 35°33' E 140°05'0 0.0
2016-Sep-21 16:29N 35°33' E 140°05'0 0.0
2016-Sep-21 09:29N 35°33' E 140°05'0 0.0
2016-Sep-21 08:29N 35°33' E 140°05'2 0.4
2016-Sep-21 03:33N 35°32' E 140°03'0 0.0
2016-Sep-21 02:33N 35°32' E 140°03'9 0.9
2016-Sep-20 17:33N 35°36' E 139°55'0 0.0
2016-Sep-20 14:33N 35°36' E 139°54'0 0.0
2016-Sep-20 13:32N 35°36' E 139°54'0 0.0
2016-Sep-20 10:33N 35°36' E 139°54'0 0.0
2016-Sep-20 08:30N 35°36' E 139°54'0 0.1
2016-Sep-20 07:33N 35°36' E 139°54'0 0.0
2016-Sep-20 06:33N 35°36' E 139°54'0 0.0
2016-Sep-20 02:33N 35°36' E 139°54'0 0.0
2016-Sep-19 23:33N 35°36' E 139°54'0 0.0
2016-Sep-19 19:33N 35°36' E 139°54'0 0.0
2016-Sep-19 18:33N 35°36' E 139°54'0 0.0
2016-Sep-19 16:33N 35°36' E 139°54'0 0.0
2016-Sep-19 14:33N 35°36' E 139°54'0 0.0
2016-Sep-19 13:33N 35°36' E 139°54'0 0.0
2016-Sep-19 12:33N 35°36' E 139°54'0 0.0
2016-Sep-19 11:33N 35°36' E 139°54'0 0.0
2016-Sep-19 09:33N 35°36' E 139°54'0 0.0
2016-Sep-19 07:27N 35°36' E 139°54'0 0.0
2016-Sep-19 06:33N 35°36' E 139°54'0 0.0
2016-Sep-19 03:14N 35°36' E 139°54'0 0.0
2016-Sep-19 02:33N 35°36' E 139°54'0 0.0
2016-Sep-19 00:32N 35°36' E 139°54'0 0.0
2016-Sep-18 19:33N 35°36' E 139°54'0 0.0
2016-Sep-18 15:32N 35°36' E 139°54'0 0.0
2016-Sep-18 14:33N 35°36' E 139°54'0 0.0
2016-Sep-18 10:33N 35°36' E 139°55'0 0.0
2016-Sep-18 09:33N 35°36' E 139°55'0 0.0
2016-Sep-18 02:29N 35°36' E 139°55'0 0.0
2016-Sep-18 01:29N 35°36' E 139°55'0 0.0
2016-Sep-18 00:29N 35°36' E 139°55'0 0.0
2016-Sep-17 22:32N 35°36' E 139°55'0 0.0
2016-Sep-17 21:29N 35°36' E 139°55'0 0.0
2016-Sep-17 20:32N 35°36' E 139°55'0 0.1
2016-Sep-17 19:16N 35°36' E 139°54'42 4.8
2016-Sep-17 10:32N 35°31' E 140°45'1413.2
2016-Sep-17 09:29N 35°42' E 140°55'16 8.2
2016-Sep-17 07:33N 35°54' E 140°41'64 4.5
2016-Sep-16 17:33N 34°57' E 140°05'19 9.1
2016-Sep-16 15:29N 35°01' E 139°43'2910.1
2016-Sep-16 12:33N 35°31' E 139°46'0 0.0
2016-Sep-16 09:33N 35°31' E 139°46'0 0.0
2016-Sep-16 07:33N 35°31' E 139°46'  
Track history (hours):
 
Tides and Currents Weather Stations Pressure Air Temp Water Temp Dewpoint Dewpoint Depression Visibility Wind Speed Wind Dir Waves Ship Positions

Puropanmaru No.3

Last reported at 2016-Sep-25 04:20 UTC. Time now 2016-Sep-25 10:35 UTC.
Position N 35°57' E 140°43'.

Length 68 m; draft 4.1 m.

Type: Tanker. MMSI: 431003365.

Date/timePositionNaut miles runAvg speedWind from/ knotsBaromVisibWave heightAir tempDewpointWater temp
2016-Sep-25 04:20N 35°57' E 140°43'4 1.2
2016-Sep-25 00:33N 35°53' E 140°41'0 0.0
2016-Sep-24 22:31N 35°53' E 140°41'5 3.9
2016-Sep-24 21:07N 35°58' E 140°44'0 0.0
2016-Sep-24 19:28N 35°58' E 140°44'0 0.0
2016-Sep-24 18:13N 35°58' E 140°44'0 0.0
2016-Sep-24 17:16N 35°58' E 140°44'0 0.0
2016-Sep-24 12:25N 35°58' E 140°44'0 0.0
2016-Sep-24 10:22N 35°58' E 140°44'12 9.5
2016-Sep-24 09:08N 35°48' E 140°52'7111.9
2016-Sep-24 03:11N 34°53' E 139°58'812.6
2016-Sep-24 02:31N 34°53' E 139°47'1212.1
2016-Sep-24 01:33N 35°04' E 139°45'1312.7
2016-Sep-24 00:34N 35°17' E 139°45'21 4.2
2016-Sep-23 19:27N 35°37' E 139°55'0 0.0
2016-Sep-23 17:33N 35°36' E 139°55'0 0.0
2016-Sep-23 16:18N 35°36' E 139°55'0 0.0
2016-Sep-23 15:30N 35°36' E 139°55'0 0.0
2016-Sep-23 13:30N 35°37' E 139°55'0 0.0
2016-Sep-23 09:33N 35°37' E 139°55'0 0.0
2016-Sep-23 06:33N 35°37' E 139°55'0 0.0
2016-Sep-23 04:30N 35°37' E 139°55'0 0.0
2016-Sep-23 03:33N 35°37' E 139°55'0 0.0
2016-Sep-23 02:33N 35°37' E 139°55'0 0.0
2016-Sep-23 01:30N 35°37' E 139°55'0 0.0
2016-Sep-23 00:33N 35°37' E 139°55'0 0.0
2016-Sep-22 23:33N 35°37' E 139°55'0 0.0
2016-Sep-22 20:33N 35°37' E 139°55'0 0.0
2016-Sep-22 12:30N 35°37' E 139°55'0 0.0
2016-Sep-22 04:33N 35°36' E 139°55'0 0.0
2016-Sep-22 03:33N 35°36' E 139°55'0 0.0
2016-Sep-22 00:30N 35°36' E 139°55'2 2.0
2016-Sep-21 23:33N 35°35' E 139°57'7 6.1
2016-Sep-21 22:23N 35°33' E 140°05'0 0.0
2016-Sep-21 19:29N 35°33' E 140°05'0 0.0
2016-Sep-21 16:29N 35°33' E 140°05'0 0.0
2016-Sep-21 09:29N 35°33' E 140°05'0 0.0
2016-Sep-21 08:29N 35°33' E 140°05'2 0.4
2016-Sep-21 03:33N 35°32' E 140°03'0 0.0
2016-Sep-21 02:33N 35°32' E 140°03'9 0.9
2016-Sep-20 17:33N 35°36' E 139°55'0 0.0
2016-Sep-20 14:33N 35°36' E 139°54'0 0.0
2016-Sep-20 13:32N 35°36' E 139°54'0 0.0
2016-Sep-20 10:33N 35°36' E 139°54'0 0.0
2016-Sep-20 08:30N 35°36' E 139°54'0 0.1
2016-Sep-20 07:33N 35°36' E 139°54'0 0.0
2016-Sep-20 06:33N 35°36' E 139°54'0 0.0
2016-Sep-20 02:33N 35°36' E 139°54'0 0.0
2016-Sep-19 23:33N 35°36' E 139°54'0 0.0
2016-Sep-19 19:33N 35°36' E 139°54'0 0.0
2016-Sep-19 18:33N 35°36' E 139°54'0 0.0
2016-Sep-19 16:33N 35°36' E 139°54'0 0.0
2016-Sep-19 14:33N 35°36' E 139°54'0 0.0
2016-Sep-19 13:33N 35°36' E 139°54'0 0.0
2016-Sep-19 12:33N 35°36' E 139°54'0 0.0
2016-Sep-19 11:33N 35°36' E 139°54'0 0.0
2016-Sep-19 09:33N 35°36' E 139°54'0 0.0
2016-Sep-19 07:27N 35°36' E 139°54'0 0.0
2016-Sep-19 06:33N 35°36' E 139°54'0 0.0
2016-Sep-19 03:14N 35°36' E 139°54'0 0.0
2016-Sep-19 02:33N 35°36' E 139°54'0 0.0
2016-Sep-19 00:32N 35°36' E 139°54'0 0.0
2016-Sep-18 19:33N 35°36' E 139°54'0 0.0
2016-Sep-18 15:32N 35°36' E 139°54'0 0.0
2016-Sep-18 14:33N 35°36' E 139°54'0 0.0
2016-Sep-18 10:33N 35°36' E 139°55'0 0.0
2016-Sep-18 09:33N 35°36' E 139°55'0 0.0
2016-Sep-18 02:29N 35°36' E 139°55'0 0.0
2016-Sep-18 01:29N 35°36' E 139°55'0 0.0
2016-Sep-18 00:29N 35°36' E 139°55'0 0.0
2016-Sep-17 22:32N 35°36' E 139°55'0 0.0
2016-Sep-17 21:29N 35°36' E 139°55'0 0.0
2016-Sep-17 20:32N 35°36' E 139°55'0 0.1
2016-Sep-17 19:16N 35°36' E 139°54'42 4.8
2016-Sep-17 10:32N 35°31' E 140°45'1413.2
2016-Sep-17 09:29N 35°42' E 140°55'16 8.2
2016-Sep-17 07:33N 35°54' E 140°41'64 4.5
2016-Sep-16 17:33N 34°57' E 140°05'19 9.1
2016-Sep-16 15:29N 35°01' E 139°43'2910.1
2016-Sep-16 12:33N 35°31' E 139°46'0 0.0
2016-Sep-16 09:33N 35°31' E 139°46'0 0.0
2016-Sep-16 07:33N 35°31' E 139°46'  

Dump ship's entire track history